Time;durP1;ratioP1;P1;durP2;ratioP2;P2;SDS_P1;SDS_P2;PMS_P1;PMS_P2;Temp;Humidity;BMP_temperature;BMP_pressure;BME280_temperature;BME280_humidity;BME280_pressure;Samples;Min_cycle;Max_cycle;Signal;HPM_P1;HPM_P2
2024/02/02 00:02:05;;;;;;;18.20;4.63;;;6.60;99.90;;;;;;5080625;28;20271;-71
2024/02/02 00:04:31;;;;;;;18.13;4.30;;;6.70;99.90;;;;;;5080413;28;20291;-72
2024/02/02 00:06:58;;;;;;;26.88;5.07;;;6.70;99.90;;;;;;5071377;28;20199;-73
2024/02/02 00:09:27;;;;;;;30.45;6.18;;;6.70;99.90;;;;;;5082671;28;20230;-71
2024/02/02 00:11:54;;;;;;;46.65;7.50;;;6.70;99.90;;;;;;5078344;28;20213;-71
2024/02/02 00:14:21;;;;;;;13.15;4.18;;;6.60;99.90;;;;;;5083310;28;20242;-76
2024/02/02 00:16:48;;;;;;;20.13;4.80;;;6.60;99.90;;;;;;5075709;28;20203;-74
2024/02/02 00:19:15;;;;;;;19.05;4.95;;;6.60;99.90;;;;;;5080009;28;20207;-75
2024/02/02 00:21:42;;;;;;;23.73;5.18;;;6.60;99.90;;;;;;5087848;28;20207;-73
2024/02/02 00:24:09;;;;;;;12.23;6.25;;;6.60;99.90;;;;;;5078273;28;20541;-70
2024/02/02 00:26:38;;;;;;;21.95;4.78;;;6.60;99.90;;;;;;5086792;28;20249;-71
2024/02/02 00:29:06;;;;;;;19.67;6.20;;;6.60;99.90;;;;;;5087322;28;20553;-74
2024/02/02 00:31:33;;;;;;;21.75;6.78;;;6.60;99.90;;;;;;5079037;28;20248;-74
2024/02/02 00:34:00;;;;;;;22.92;6.95;;;6.60;99.90;;;;;;5082591;28;20218;-77
2024/02/02 00:36:27;;;;;;;24.30;6.72;;;6.60;99.90;;;;;;5081506;28;20206;-72
2024/02/02 00:38:54;;;;;;;27.98;6.97;;;6.60;99.90;;;;;;5081014;28;20207;-74
2024/02/02 00:41:21;;;;;;;21.00;6.78;;;6.50;99.90;;;;;;5086648;28;20211;-74
2024/02/02 00:43:49;;;;;;;29.52;6.13;;;6.60;99.90;;;;;;5093008;28;20222;-74
2024/02/02 00:46:16;;;;;;;16.48;6.20;;;6.60;99.90;;;;;;5076754;28;20621;-71
2024/02/02 00:48:43;;;;;;;18.73;6.07;;;6.60;99.90;;;;;;5083280;28;20653;-73
2024/02/02 00:51:10;;;;;;;21.80;8.35;;;6.50;99.90;;;;;;5085064;28;20636;-71
2024/02/02 00:53:37;;;;;;;32.10;7.65;;;6.60;99.90;;;;;;5089109;28;20223;-73
2024/02/02 00:56:05;;;;;;;17.05;6.18;;;6.60;99.90;;;;;;5076696;28;20292;-75
2024/02/02 00:58:32;;;;;;;22.08;6.55;;;6.60;99.90;;;;;;5077931;28;20221;-72
2024/02/02 01:01:00;;;;;;;13.88;6.57;;;6.60;99.90;;;;;;5075651;28;20680;-71
2024/02/02 01:03:28;;;;;;;31.70;7.30;;;6.60;99.90;;;;;;5089130;28;20231;-71
2024/02/02 01:05:55;;;;;;;23.80;7.28;;;6.60;99.90;;;;;;5074989;28;20229;-74
2024/02/02 01:08:22;;;;;;;23.77;7.13;;;6.60;99.90;;;;;;5075260;28;20229;-71
2024/02/02 01:10:49;;;;;;;18.65;9.32;;;6.60;99.90;;;;;;5074387;28;20227;-70
2024/02/02 01:13:16;;;;;;;26.48;7.65;;;6.60;99.90;;;;;;5081737;28;20239;-73
2024/02/02 01:15:44;;;;;;;26.52;8.18;;;6.60;99.90;;;;;;5089603;28;20666;-71
2024/02/02 01:18:14;;;;;;;20.02;7.72;;;6.60;99.90;;;;;;5083382;28;20242;-74
2024/02/02 01:20:42;;;;;;;26.25;8.70;;;6.60;99.90;;;;;;5085561;28;20207;-75
2024/02/02 01:23:09;;;;;;;34.58;11.02;;;6.60;99.90;;;;;;5078949;28;20231;-74
2024/02/02 01:25:36;;;;;;;40.83;9.13;;;6.60;99.90;;;;;;5076809;28;20628;-73
2024/02/02 01:28:03;;;;;;;31.35;9.52;;;6.60;99.90;;;;;;5082987;28;20206;-72
2024/02/02 01:30:32;;;;;;;24.48;9.30;;;6.70;99.90;;;;;;5086048;28;20273;-71
2024/02/02 01:32:59;;;;;;;35.85;11.57;;;6.70;99.90;;;;;;5090267;28;20288;-75
2024/02/02 01:35:27;;;;;;;32.63;11.10;;;6.70;99.90;;;;;;5080996;28;20261;-74
2024/02/02 01:37:54;;;;;;;29.42;11.90;;;6.70;99.90;;;;;;5082249;28;20735;-74
2024/02/02 01:40:21;;;;;;;26.35;11.00;;;6.70;99.90;;;;;;5091160;28;20202;-74
2024/02/02 01:42:48;;;;;;;45.78;11.15;;;6.70;99.90;;;;;;5085578;28;20219;-74
2024/02/02 01:45:15;;;;;;;22.13;10.70;;;6.60;99.90;;;;;;5089455;28;20225;-73
2024/02/02 01:47:42;;;;;;;36.35;13.02;;;6.70;99.90;;;;;;5074811;28;20320;-74
2024/02/02 01:50:10;;;;;;;43.60;11.75;;;6.70;99.90;;;;;;5081731;28;20253;-71
2024/02/02 01:52:38;;;;;;;30.70;10.52;;;6.70;99.90;;;;;;5087724;28;20222;-75
2024/02/02 01:55:06;;;;;;;25.50;10.93;;;6.70;99.90;;;;;;5081508;28;20253;-72
2024/02/02 01:57:34;;;;;;;29.98;11.80;;;6.70;99.90;;;;;;5085923;28;20203;-71
2024/02/02 02:00:02;;;;;;;20.70;12.55;;;6.70;99.90;;;;;;5082188;28;20196;-73
2024/02/02 02:02:31;;;;;;;38.63;14.35;;;6.70;99.90;;;;;;5081289;28;20227;-69
2024/02/02 02:04:58;;;;;;;21.95;10.35;;;6.70;99.90;;;;;;5082928;28;20199;-71
2024/02/02 02:07:26;;;;;;;31.73;14.40;;;6.60;99.90;;;;;;5073741;28;20231;-73
2024/02/02 02:09:55;;;;;;;27.02;12.13;;;6.60;99.90;;;;;;5076876;28;20203;-70
2024/02/02 02:12:22;;;;;;;29.08;12.38;;;6.70;99.90;;;;;;5086489;28;20614;-72
2024/02/02 02:14:49;;;;;;;31.90;12.27;;;6.60;99.90;;;;;;5083639;28;20214;-73
2024/02/02 02:17:16;;;;;;;30.98;14.02;;;6.60;99.90;;;;;;5075077;28;20207;-73
2024/02/02 02:19:47;;;;;;;33.90;13.88;;;6.60;99.90;;;;;;5082345;28;20203;-74
2024/02/02 02:22:15;;;;;;;35.05;14.10;;;6.60;99.90;;;;;;5074936;28;20227;-72
2024/02/02 02:24:42;;;;;;;29.30;14.13;;;6.60;99.90;;;;;;5074445;28;20688;-71
2024/02/02 02:27:10;;;;;;;33.20;14.48;;;6.60;99.90;;;;;;5073663;28;20583;-73
2024/02/02 02:29:37;;;;;;;36.47;15.20;;;6.60;99.90;;;;;;5074993;28;20211;-71
2024/02/02 02:32:06;;;;;;;26.77;13.05;;;6.60;99.90;;;;;;5073416;28;20288;-70
2024/02/02 02:34:33;;;;;;;42.97;12.50;;;6.60;99.90;;;;;;5083793;28;20214;-73
2024/02/02 02:37:00;;;;;;;38.15;12.85;;;6.60;99.90;;;;;;5075102;28;20249;-72
2024/02/02 02:39:28;;;;;;;35.38;13.45;;;6.60;99.90;;;;;;5077247;28;20203;-74
2024/02/02 02:41:55;;;;;;;33.30;13.40;;;6.60;99.90;;;;;;5076712;28;20225;-71
2024/02/02 02:44:22;;;;;;;33.38;15.57;;;6.60;99.90;;;;;;5084978;28;20622;-73
2024/02/02 02:46:51;;;;;;;25.35;12.82;;;6.60;99.90;;;;;;5081915;28;20256;-72
2024/02/02 02:49:18;;;;;;;29.27;11.90;;;6.60;99.90;;;;;;5076883;28;20210;-72
2024/02/02 02:51:45;;;;;;;36.70;15.50;;;6.60;99.90;;;;;;5082001;28;20292;-72
2024/02/02 02:54:12;;;;;;;35.17;15.18;;;6.60;99.90;;;;;;5081165;28;20260;-72
2024/02/02 02:56:40;;;;;;;34.58;15.45;;;6.60;99.90;;;;;;5073266;28;20608;-72
2024/02/02 02:59:07;;;;;;;29.13;14.80;;;6.60;99.90;;;;;;5081917;28;20247;-73
2024/02/02 03:01:34;;;;;;;30.85;16.02;;;6.70;99.90;;;;;;5078730;28;20195;-71
2024/02/02 03:04:01;;;;;;;29.75;14.95;;;6.70;99.90;;;;;;5087495;28;20219;-74
2024/02/02 03:06:28;;;;;;;37.78;15.63;;;6.70;99.90;;;;;;5081679;28;20203;-71
2024/02/02 03:08:56;;;;;;;46.92;17.88;;;6.70;99.90;;;;;;5081174;28;20207;-72
2024/02/02 03:11:23;;;;;;;31.90;14.90;;;6.70;99.90;;;;;;5082090;28;20234;-70
2024/02/02 03:13:52;;;;;;;35.65;14.55;;;6.60;99.90;;;;;;5078923;28;20227;-74
2024/02/02 03:16:19;;;;;;;31.52;16.30;;;6.70;99.90;;;;;;5077044;28;20199;-74
2024/02/02 03:18:47;;;;;;;32.80;14.32;;;6.70;99.90;;;;;;5092918;28;20207;-73
2024/02/02 03:21:15;;;;;;;38.72;15.82;;;6.70;99.90;;;;;;5081336;28;20195;-71
2024/02/02 03:23:42;;;;;;;35.72;14.70;;;6.60;99.90;;;;;;5082693;28;20275;-73
2024/02/02 03:26:09;;;;;;;33.83;15.60;;;6.60;99.90;;;;;;5072188;28;20207;-72
2024/02/02 03:28:36;;;;;;;38.50;15.43;;;6.60;99.90;;;;;;5081062;28;20203;-74
2024/02/02 03:31:05;;;;;;;30.52;15.05;;;6.70;99.90;;;;;;5076387;28;20585;-73
2024/02/02 03:33:32;;;;;;;28.58;13.73;;;6.70;99.90;;;;;;5078541;28;20226;-71
2024/02/02 03:35:59;;;;;;;26.33;13.55;;;6.70;99.90;;;;;;5082518;28;20260;-74
2024/02/02 03:38:26;;;;;;;38.42;13.77;;;6.70;99.90;;;;;;5074210;28;20203;-71
2024/02/02 03:40:53;;;;;;;34.40;13.68;;;6.70;99.90;;;;;;5072945;28;20265;-74
2024/02/02 03:43:20;;;;;;;29.33;13.55;;;6.80;99.90;;;;;;5075975;28;20223;-72
2024/02/02 03:45:47;;;;;;;26.10;11.80;;;6.70;99.90;;;;;;5073537;28;20227;-69
2024/02/02 03:48:16;;;;;;;28.40;11.85;;;6.70;99.90;;;;;;5080978;28;20243;-69
2024/02/02 03:50:43;;;;;;;26.85;11.40;;;6.70;99.90;;;;;;5080850;28;20223;-72
2024/02/02 03:53:10;;;;;;;23.65;12.02;;;6.80;99.90;;;;;;5080925;28;20245;-72
2024/02/02 03:55:37;;;;;;;20.92;10.65;;;6.70;99.90;;;;;;5074437;28;20195;-74
2024/02/02 03:58:04;;;;;;;24.35;11.98;;;6.70;99.90;;;;;;5084295;28;20275;-70
2024/02/02 04:00:31;;;;;;;33.40;12.63;;;6.70;99.90;;;;;;5083559;28;20586;-73
2024/02/02 04:02:58;;;;;;;30.40;11.50;;;6.70;99.90;;;;;;5077402;28;20215;-71
2024/02/02 04:05:26;;;;;;;30.70;11.45;;;6.70;99.90;;;;;;5077125;28;20199;-73
2024/02/02 04:07:53;;;;;;;32.10;11.80;;;6.70;99.90;;;;;;5079663;28;20256;-70
2024/02/02 04:10:20;;;;;;;28.48;10.98;;;6.70;99.90;;;;;;5073460;28;20253;-71
2024/02/02 04:12:46;;;;;;;29.35;11.27;;;6.70;99.90;;;;;;5087198;28;20230;-74
2024/02/02 04:15:13;;;;;;;18.73;10.43;;;6.70;99.90;;;;;;5080819;28;20214;-72
2024/02/02 04:17:40;;;;;;;24.83;10.88;;;6.70;99.90;;;;;;5075457;28;20661;-74
2024/02/02 04:20:09;;;;;;;37.55;15.30;;;6.70;99.90;;;;;;5085988;28;20202;-72
2024/02/02 04:22:37;;;;;;;27.85;11.50;;;6.70;99.90;;;;;;5073437;28;20222;-71
2024/02/02 04:25:05;;;;;;;22.23;10.00;;;6.70;99.90;;;;;;5084485;28;20207;-71
2024/02/02 04:27:32;;;;;;;35.97;11.18;;;6.70;99.90;;;;;;5081161;28;20670;-75
2024/02/02 04:29:59;;;;;;;23.45;9.63;;;6.70;99.90;;;;;;5073478;28;20238;-71
2024/02/02 04:32:26;;;;;;;27.98;11.10;;;6.80;99.90;;;;;;5084549;28;20288;-72
2024/02/02 04:34:53;;;;;;;30.85;12.93;;;6.70;99.90;;;;;;5072916;28;20622;-71
2024/02/02 04:37:20;;;;;;;29.13;11.02;;;6.80;99.90;;;;;;5078665;28;20199;-72
2024/02/02 04:39:48;;;;;;;21.25;12.00;;;6.70;99.90;;;;;;5080641;28;20200;-71
2024/02/02 04:42:15;;;;;;;22.35;11.00;;;6.80;99.90;;;;;;5072100;28;20225;-74
2024/02/02 04:44:42;;;;;;;23.52;11.55;;;6.80;99.90;;;;;;5076866;28;20203;-73
2024/02/02 04:47:09;;;;;;;26.13;12.23;;;6.80;99.90;;;;;;5087112;28;20198;-74
2024/02/02 04:49:37;;;;;;;27.60;11.30;;;6.80;99.90;;;;;;5080872;28;20223;-73
2024/02/02 04:52:05;;;;;;;25.27;12.98;;;6.80;99.90;;;;;;5077495;28;20227;-74
2024/02/02 04:54:32;;;;;;;17.88;10.75;;;6.80;99.90;;;;;;5081894;28;20203;-75
2024/02/02 04:57:00;;;;;;;29.67;12.52;;;6.70;99.90;;;;;;5080422;28;20638;-70
2024/02/02 04:59:27;;;;;;;21.60;12.02;;;6.80;99.90;;;;;;5075807;28;20199;-72
2024/02/02 05:01:54;;;;;;;25.80;11.90;;;6.80;99.90;;;;;;5083521;28;20255;-72
2024/02/02 05:04:21;;;;;;;32.00;12.93;;;6.80;99.90;;;;;;5089377;28;20202;-72
2024/02/02 05:06:48;;;;;;;39.92;12.55;;;6.80;99.90;;;;;;5082221;28;20249;-72
2024/02/02 05:09:16;;;;;;;56.50;15.25;;;6.80;99.90;;;;;;5083293;28;20207;-74
2024/02/02 05:11:43;;;;;;;34.75;13.60;;;6.80;99.90;;;;;;5082062;28;20223;-72
2024/02/02 05:14:11;;;;;;;34.28;12.23;;;6.80;99.90;;;;;;5086821;28;20210;-74
2024/02/02 05:16:38;;;;;;;26.73;12.65;;;6.80;99.90;;;;;;5075924;28;20677;-71
2024/02/02 05:19:05;;;;;;;36.80;13.73;;;6.90;99.90;;;;;;5085474;28;20272;-72
2024/02/02 05:21:32;;;;;;;18.15;13.90;;;6.90;99.90;;;;;;5089123;28;20657;-72
2024/02/02 05:24:00;;;;;;;24.67;12.80;;;6.90;99.90;;;;;;5084474;28;20774;-70
2024/02/02 05:26:27;;;;;;;25.13;12.65;;;6.90;99.90;;;;;;5085869;28;20199;-72
2024/02/02 05:28:54;;;;;;;31.98;14.93;;;6.90;99.90;;;;;;5079463;28;20249;-70
2024/02/02 05:31:22;;;;;;;30.30;12.52;;;7.00;99.90;;;;;;5089296;28;20219;-71
2024/02/02 05:33:50;;;;;;;20.30;14.50;;;7.00;99.90;;;;;;5087236;28;20219;-71
2024/02/02 05:36:17;;;;;;;26.77;11.45;;;7.00;99.90;;;;;;5083444;28;20257;-74
2024/02/02 05:38:44;;;;;;;28.95;14.52;;;7.00;99.90;;;;;;5078639;28;20256;-71
2024/02/02 05:41:11;;;;;;;23.65;13.15;;;7.00;99.90;;;;;;5081696;28;20268;-75
2024/02/02 05:43:38;;;;;;;25.25;13.05;;;7.00;99.90;;;;;;5083298;28;20215;-68
2024/02/02 05:46:05;;;;;;;21.90;12.25;;;7.00;99.90;;;;;;5082189;28;20273;-71
2024/02/02 05:48:34;;;;;;;27.95;13.73;;;7.00;99.90;;;;;;5075348;28;20235;-70
2024/02/02 05:51:01;;;;;;;25.83;12.35;;;7.00;99.90;;;;;;5079640;28;20232;-70
2024/02/02 05:53:28;;;;;;;26.25;13.43;;;7.00;99.90;;;;;;5076928;28;20276;-71
2024/02/02 05:55:55;;;;;;;29.90;12.65;;;7.00;99.90;;;;;;5081690;28;20250;-70
2024/02/02 05:58:22;;;;;;;20.38;13.10;;;6.90;99.90;;;;;;5075335;28;20230;-73
2024/02/02 06:00:49;;;;;;;26.15;14.30;;;6.90;99.90;;;;;;5086741;28;20253;-70
2024/02/02 06:03:16;;;;;;;21.33;13.48;;;6.90;99.90;;;;;;5076810;28;20300;-70
2024/02/02 06:05:44;;;;;;;37.05;14.60;;;6.90;99.90;;;;;;5083262;28;20198;-72
2024/02/02 06:08:13;;;;;;;25.52;13.15;;;6.90;99.90;;;;;;5082053;28;20245;-71
2024/02/02 06:10:41;;;;;;;32.90;15.07;;;6.90;99.90;;;;;;5077229;28;20222;-71
2024/02/02 06:13:08;;;;;;;39.80;15.25;;;6.90;99.90;;;;;;5079152;28;20237;-71
2024/02/02 06:15:35;;;;;;;26.23;12.95;;;7.00;99.90;;;;;;5074536;28;20659;-73
2024/02/02 06:18:02;;;;;;;21.05;12.60;;;7.00;99.90;;;;;;5073391;28;20199;-72
2024/02/02 06:20:29;;;;;;;26.77;12.48;;;6.90;99.90;;;;;;5086259;28;20257;-71
2024/02/02 06:22:57;;;;;;;23.95;11.57;;;7.00;99.90;;;;;;5077965;28;20614;-70
2024/02/02 06:25:25;;;;;;;29.05;13.52;;;7.00;99.90;;;;;;5080382;28;20207;-72
2024/02/02 06:27:51;;;;;;;23.15;11.85;;;6.90;99.90;;;;;;5080805;28;20202;-69
2024/02/02 06:30:18;;;;;;;22.98;11.43;;;7.00;99.90;;;;;;5074868;28;20630;-75
2024/02/02 06:32:49;;;;;;;24.30;12.45;;;6.90;99.90;;;;;;5085186;28;20276;-70
2024/02/02 06:35:16;;;;;;;18.58;10.73;;;6.90;99.90;;;;;;5082628;28;20569;-73
2024/02/02 06:37:43;;;;;;;26.02;10.90;;;7.00;99.90;;;;;;5079460;28;20203;-73
2024/02/02 06:40:13;;;;;;;24.30;15.55;;;7.00;99.90;;;;;;5082614;28;20603;-72
2024/02/02 06:42:40;;;;;;;29.25;12.07;;;7.00;99.90;;;;;;5081874;28;20219;-74
2024/02/02 06:45:07;;;;;;;26.42;13.43;;;7.00;99.90;;;;;;5078434;28;20253;-71
2024/02/02 06:47:37;;;;;;;22.40;10.80;;;7.00;99.90;;;;;;5073297;28;20203;-77
2024/02/02 06:50:04;;;;;;;23.50;11.35;;;7.00;99.90;;;;;;5076451;28;20215;-71
2024/02/02 06:52:31;;;;;;;23.77;12.02;;;7.00;99.90;;;;;;5079631;28;20227;-74
2024/02/02 06:54:59;;;;;;;25.00;11.57;;;7.00;99.90;;;;;;5080976;28;20252;-73
2024/02/02 06:57:31;;;;;;;28.83;14.02;;;7.10;99.90;;;;;;5082911;28;20207;-71
2024/02/02 07:00:00;;;;;;;24.85;12.40;;;7.00;99.90;;;;;;5074242;28;20204;-72
2024/02/02 07:02:31;;;;;;;27.65;15.43;;;7.10;99.90;;;;;;5073676;28;20269;-71
2024/02/02 07:04:58;;;;;;;20.33;11.02;;;7.10;99.90;;;;;;5075414;28;20226;-71
2024/02/02 07:07:25;;;;;;;22.80;11.52;;;7.10;99.90;;;;;;5079789;28;20575;-71
2024/02/02 07:09:56;;;;;;;31.25;16.08;;;7.10;99.90;;;;;;5073314;28;20199;-73
2024/02/02 07:12:57;;;;;;;22.23;12.35;;;7.10;99.90;;;;;;5073751;28;20308;-75
2024/02/02 07:15:26;;;;;;;20.67;10.68;;;7.10;99.90;;;;;;5070818;28;20626;-72
2024/02/02 07:17:53;;;;;;;23.63;10.98;;;7.10;99.90;;;;;;5079452;28;20264;-73
2024/02/02 07:20:59;;;;;;;26.85;12.23;;;7.10;99.90;;;;;;5075939;28;20206;-71
2024/02/02 07:23:35;;;;;;;24.73;13.75;;;7.10;99.90;;;;;;5079708;28;20211;-72
2024/02/02 07:26:06;;;;;;;23.58;12.60;;;7.10;99.90;;;;;;5075361;28;20252;-72
2024/02/02 07:28:37;;;;;;;27.88;12.98;;;7.10;99.90;;;;;;5072578;28;20286;-74
2024/02/02 07:31:07;;;;;;;20.92;13.30;;;7.10;99.90;;;;;;5079337;28;20661;-74
2024/02/02 07:33:40;;;;;;;21.13;11.90;;;7.10;99.90;;;;;;5082331;28;20733;-72
2024/02/02 07:36:11;;;;;;;29.20;12.90;;;7.10;99.90;;;;;;5079806;28;20195;-72
2024/02/02 07:38:49;;;;;;;27.25;12.45;;;7.10;99.90;;;;;;5084321;28;20229;-73
2024/02/02 07:41:17;;;;;;;30.23;12.90;;;7.20;99.90;;;;;;5077515;28;20207;-74
2024/02/02 07:43:47;;;;;;;30.80;13.00;;;7.20;99.90;;;;;;5073703;28;20219;-72
2024/02/02 07:46:14;;;;;;;29.15;12.88;;;7.20;99.90;;;;;;5073021;28;20234;-73
2024/02/02 07:48:42;;;;;;;27.95;13.95;;;7.30;99.90;;;;;;5075798;28;20199;-74
2024/02/02 07:51:09;;;;;;;21.05;13.50;;;7.30;99.90;;;;;;5087930;28;20202;-69
2024/02/02 07:53:36;;;;;;;21.70;13.80;;;7.30;99.90;;;;;;5075769;28;20659;-71
2024/02/02 07:56:04;;;;;;;31.85;13.90;;;7.30;99.90;;;;;;5081548;28;21014;-69
2024/02/02 07:58:32;;;;;;;25.00;14.23;;;7.30;99.90;;;;;;5073064;28;20249;-72
2024/02/02 08:01:00;;;;;;;31.48;15.80;;;7.30;99.90;;;;;;5072164;28;20233;-74
2024/02/02 08:03:27;;;;;;;31.25;13.68;;;7.40;99.90;;;;;;5073142;28;20678;-73
2024/02/02 08:05:54;;;;;;;25.42;14.80;;;7.40;99.90;;;;;;5072517;28;20199;-70
2024/02/02 08:08:21;;;;;;;28.52;14.93;;;7.40;99.90;;;;;;5073959;28;20203;-69
2024/02/02 08:10:48;;;;;;;28.48;15.90;;;7.50;99.90;;;;;;5074256;28;20203;-73
2024/02/02 08:13:18;;;;;;;29.23;13.38;;;7.50;99.90;;;;;;5075713;28;20238;-72
2024/02/02 08:15:45;;;;;;;28.63;15.68;;;7.50;99.90;;;;;;5077751;28;20214;-75
2024/02/02 08:18:14;;;;;;;27.17;13.90;;;7.50;99.90;;;;;;5071638;28;20207;-74
2024/02/02 08:20:41;;;;;;;25.13;13.80;;;7.60;99.90;;;;;;5082302;28;20262;-72
2024/02/02 08:23:08;;;;;;;26.90;14.90;;;7.60;99.90;;;;;;5077863;28;20955;-71
2024/02/02 08:25:35;;;;;;;23.95;14.48;;;7.60;99.90;;;;;;5082557;28;20219;-74
2024/02/02 08:28:02;;;;;;;36.55;16.75;;;7.60;99.90;;;;;;5077749;28;20752;-74
2024/02/02 08:30:29;;;;;;;35.55;14.45;;;7.60;99.90;;;;;;5074198;28;20609;-73
2024/02/02 08:32:56;;;;;;;35.78;14.38;;;7.60;99.90;;;;;;5080085;28;20222;-73
2024/02/02 08:35:26;;;;;;;32.55;17.05;;;7.70;99.90;;;;;;5082168;28;20674;-76
2024/02/02 08:37:57;;;;;;;39.55;16.05;;;7.50;99.90;;;;;;5080087;28;20256;-76
2024/02/02 08:40:31;;;;;;;20.52;15.75;;;7.60;99.90;;;;;;5076932;28;20205;-76
2024/02/02 08:42:58;;;;;;;29.23;15.65;;;7.60;99.90;;;;;;5083221;28;20263;-74
2024/02/02 08:46:00;;;;;;;32.17;16.00;;;7.70;99.90;;;;;;5077514;28;20210;-77
2024/02/02 08:48:36;;;;;;;28.23;15.05;;;7.70;99.90;;;;;;5083720;28;20248;-76
2024/02/02 08:51:29;;;;;;;29.42;14.75;;;7.70;99.90;;;;;;5080720;28;20298;-74
2024/02/02 08:54:09;;;;;;;29.98;15.20;;;7.60;99.90;;;;;;5069005;28;20227;-74
2024/02/02 08:56:36;;;;;;;23.52;15.65;;;7.50;99.90;;;;;;5082451;28;20272;-78
2024/02/02 08:59:27;;;;;;;41.15;15.25;;;7.60;99.90;;;;;;5078771;28;20658;-75
2024/02/02 09:01:53;;;;;;;43.95;13.50;;;7.60;99.90;;;;;;5085876;28;20238;-77
2024/02/02 09:04:53;;;;;;;32.10;14.55;;;7.70;99.90;;;;;;5081711;28;20195;-75
2024/02/02 09:07:22;;;;;;;28.58;13.15;;;7.70;99.90;;;;;;5081014;28;20244;-75
2024/02/02 09:09:49;;;;;;;42.85;16.10;;;7.60;99.90;;;;;;5081631;28;20206;-76
2024/02/02 09:12:16;;;;;;;23.00;13.93;;;7.60;99.90;;;;;;5081416;28;20235;-75
2024/02/02 09:14:45;;;;;;;30.40;14.40;;;7.60;99.90;;;;;;5080821;28;20211;-77
2024/02/02 09:17:13;;;;;;;33.97;15.38;;;7.70;99.90;;;;;;5075069;28;20222;-77
2024/02/02 09:19:42;;;;;;;27.25;13.07;;;7.70;99.90;;;;;;5075774;28;20290;-76
2024/02/02 09:22:12;;;;;;;35.17;15.95;;;7.80;99.90;;;;;;5075569;28;20219;-75
2024/02/02 09:24:42;;;;;;;36.25;15.25;;;7.80;99.90;;;;;;5078474;28;20235;-76
2024/02/02 09:27:14;;;;;;;30.67;15.82;;;7.80;99.90;;;;;;5078146;28;20217;-75
2024/02/02 09:29:49;;;;;;;29.88;15.68;;;7.60;99.90;;;;;;5081177;28;20219;-75
2024/02/02 09:32:16;;;;;;;32.58;15.48;;;7.70;99.90;;;;;;5075610;28;20257;-77
2024/02/02 09:34:43;;;;;;;39.03;14.98;;;7.70;99.90;;;;;;5077971;28;20230;-77
2024/02/02 09:37:12;;;;;;;27.65;16.08;;;7.80;99.90;;;;;;5074270;28;20200;-76
2024/02/02 09:40:16;;;;;;;32.10;15.10;;;7.70;99.90;;;;;;5077793;28;20261;-75
2024/02/02 09:42:56;;;;;;;26.52;15.07;;;7.80;99.90;;;;;;5080667;28;20210;-74
2024/02/02 09:45:50;;;;;;;27.67;13.18;;;7.80;99.90;;;;;;5086062;28;20211;-75
2024/02/02 09:48:32;;;;;;;21.98;11.88;;;7.80;99.90;;;;;;5074551;28;20234;-77
2024/02/02 09:51:06;;;;;;;31.17;15.77;;;7.80;99.90;;;;;;5080964;28;20665;-75
2024/02/02 09:53:54;;;;;;;27.65;16.38;;;7.80;99.90;;;;;;5084044;28;20655;-74
2024/02/02 09:56:29;;;;;;;32.80;14.65;;;7.80;99.90;;;;;;5086313;28;20257;-75
2024/02/02 09:59:02;;;;;;;29.52;15.10;;;7.80;99.90;;;;;;5076432;28;20207;-74
2024/02/02 10:01:48;;;;;;;29.73;13.88;;;7.80;99.90;;;;;;5077939;28;20636;-74
2024/02/02 10:04:30;;;;;;;39.22;15.10;;;7.80;99.90;;;;;;5080956;28;20198;-76
2024/02/02 10:07:09;;;;;;;41.33;15.15;;;7.90;99.90;;;;;;5072908;28;20253;-76
2024/02/02 10:10:01;;;;;;;24.67;14.82;;;7.90;99.90;;;;;;5082350;28;20211;-77
2024/02/02 10:12:40;;;;;;;30.23;13.75;;;7.90;99.90;;;;;;5075667;28;20644;-77
2024/02/02 10:15:37;;;;;;;29.35;14.55;;;8.00;99.90;;;;;;5085221;28;20237;-74
2024/02/02 10:18:32;;;;;;;34.28;14.02;;;8.00;99.90;;;;;;5074146;28;20199;-78
2024/02/02 10:21:05;;;;;;;19.02;12.68;;;7.90;99.90;;;;;;5044123;28;20199;-76
2024/02/02 10:23:57;;;;;;;36.67;15.10;;;8.00;99.90;;;;;;5078016;28;20294;-77
2024/02/02 10:26:52;;;;;;;31.88;16.73;;;8.00;99.90;;;;;;5073488;28;20276;-75
2024/02/02 10:29:28;;;;;;;39.38;15.18;;;8.00;99.90;;;;;;5074176;28;20246;-75
2024/02/02 10:32:17;;;;;;;29.17;14.18;;;7.90;99.90;;;;;;5083609;28;20255;-78
2024/02/02 10:34:55;;;;;;;29.55;14.35;;;8.00;99.90;;;;;;5074752;28;20223;-75
2024/02/02 10:37:33;;;;;;;27.80;14.65;;;8.00;99.90;;;;;;5073925;28;20203;-78
2024/02/02 10:40:25;;;;;;;30.70;13.73;;;8.00;99.90;;;;;;5079686;28;20211;-76
2024/02/02 10:43:07;;;;;;;29.00;14.73;;;8.10;99.90;;;;;;5074429;28;20223;-76
2024/02/02 10:45:42;;;;;;;35.58;15.43;;;8.20;99.90;;;;;;5074067;28;20249;-76
2024/02/02 10:48:40;;;;;;;30.88;16.65;;;8.20;99.90;;;;;;5073524;28;20290;-76
2024/02/02 10:51:16;;;;;;;36.60;15.32;;;8.10;99.90;;;;;;5073303;28;20195;-76
2024/02/02 10:53:59;;;;;;;32.20;15.50;;;8.10;99.90;;;;;;5073769;28;20225;-75
2024/02/02 10:56:43;;;;;;;25.63;14.07;;;8.10;99.90;;;;;;5078687;28;20226;-75
2024/02/02 10:59:21;;;;;;;31.38;12.93;;;8.10;99.90;;;;;;5078613;28;20211;-77
2024/02/02 11:01:58;;;;;;;26.50;14.30;;;8.20;99.90;;;;;;5073741;28;20695;-77
2024/02/02 11:04:34;;;;;;;21.77;12.63;;;8.20;99.90;;;;;;5075164;28;20201;-75
2024/02/02 11:07:10;;;;;;;34.60;13.48;;;8.30;99.90;;;;;;5084811;28;20199;-75
2024/02/02 11:09:46;;;;;;;27.67;13.18;;;8.40;99.90;;;;;;5072931;28;20206;-74
2024/02/02 11:12:20;;;;;;;28.42;13.52;;;8.40;99.90;;;;;;5073154;28;20296;-78
2024/02/02 11:14:54;;;;;;;33.22;14.85;;;8.40;99.90;;;;;;5081167;28;20234;-76
2024/02/02 11:17:33;;;;;;;40.45;14.45;;;8.30;99.90;;;;;;5072879;28;20264;-76
2024/02/02 11:20:15;;;;;;;23.73;13.82;;;8.30;99.90;;;;;;5079980;28;20608;-75
2024/02/02 11:22:47;;;;;;;26.00;13.82;;;8.40;99.90;;;;;;5077617;28;20314;-75
2024/02/02 11:25:23;;;;;;;25.92;14.68;;;8.30;99.90;;;;;;5076871;28;20222;-76
2024/02/02 11:27:56;;;;;;;30.67;15.07;;;8.40;99.90;;;;;;5074162;28;20642;-77
2024/02/02 11:30:49;;;;;;;27.80;15.88;;;8.30;99.90;;;;;;5078282;28;20544;-76
2024/02/02 11:33:37;;;;;;;28.30;13.45;;;8.30;99.90;;;;;;5075148;28;20250;-74
2024/02/02 11:36:15;;;;;;;27.95;13.45;;;8.30;99.90;;;;;;5081296;28;20204;-76
2024/02/02 11:38:54;;;;;;;32.03;15.75;;;8.30;99.90;;;;;;5075455;28;21406;-77
2024/02/02 11:41:26;;;;;;;30.30;15.15;;;8.40;99.90;;;;;;5077615;28;20231;-76
2024/02/02 11:43:55;;;;;;;26.15;15.40;;;8.40;99.90;;;;;;5076191;28;20241;-76
2024/02/02 11:46:26;;;;;;;22.60;16.25;;;8.50;99.90;;;;;;5082286;28;20665;-75
2024/02/02 11:49:05;;;;;;;34.55;14.73;;;8.40;99.90;;;;;;5081934;28;20202;-77
2024/02/02 11:51:35;;;;;;;25.92;15.45;;;8.50;99.90;;;;;;5074102;28;20207;-76
2024/02/02 11:54:06;;;;;;;31.20;18.00;;;8.50;99.90;;;;;;5077801;28;20227;-74
2024/02/02 11:56:36;;;;;;;31.70;18.85;;;8.50;99.90;;;;;;5082445;28;20203;-77
2024/02/02 11:59:09;;;;;;;37.55;17.80;;;8.50;99.90;;;;;;5085817;28;20207;-77
2024/02/02 12:01:47;;;;;;;26.13;16.65;;;8.60;99.90;;;;;;5082493;28;20596;-76
2024/02/02 12:04:31;;;;;;;31.70;17.85;;;8.70;99.90;;;;;;5076942;28;20206;-74
2024/02/02 12:07:17;;;;;;;33.67;17.65;;;8.70;99.90;;;;;;5072988;28;20770;-76
2024/02/02 12:09:49;;;;;;;42.58;19.83;;;8.60;99.90;;;;;;5076463;28;20600;-75
2024/02/02 12:12:23;;;;;;;34.00;18.77;;;8.70;99.90;;;;;;5076732;28;20238;-76
2024/02/02 12:14:51;;;;;;;27.02;16.17;;;8.70;99.90;;;;;;5075320;28;20219;-78
2024/02/02 12:17:19;;;;;;;26.20;18.42;;;8.70;99.90;;;;;;5074388;28;20286;-77
2024/02/02 12:19:47;;;;;;;29.40;18.13;;;8.80;99.90;;;;;;5075207;28;20639;-78
2024/02/02 12:22:15;;;;;;;34.97;18.85;;;8.80;99.90;;;;;;5072765;28;20222;-76
2024/02/02 12:24:42;;;;;;;35.08;16.70;;;8.90;99.90;;;;;;5072791;28;20199;-76
2024/02/02 12:27:09;;;;;;;29.33;19.17;;;8.90;99.90;;;;;;5071837;28;20684;-76
2024/02/02 12:29:36;;;;;;;36.75;18.00;;;9.00;99.90;;;;;;5083185;28;20206;-73
2024/02/02 12:32:05;;;;;;;28.33;17.42;;;8.90;99.90;;;;;;5073524;28;20235;-74
2024/02/02 12:34:32;;;;;;;44.33;20.42;;;9.00;99.90;;;;;;5072998;28;20242;-75
2024/02/02 12:37:01;;;;;;;40.50;17.92;;;9.00;99.90;;;;;;5083726;28;20198;-76
2024/02/02 12:39:31;;;;;;;32.53;18.20;;;9.00;99.90;;;;;;5079380;28;20203;-74
2024/02/02 12:41:58;;;;;;;37.65;17.55;;;9.00;99.90;;;;;;5081407;28;20678;-76
2024/02/02 12:44:26;;;;;;;35.95;19.98;;;9.20;99.90;;;;;;5073728;28;20724;-74
2024/02/02 12:46:53;;;;;;;33.25;19.20;;;9.20;99.90;;;;;;5078176;28;20206;-76
2024/02/02 12:49:21;;;;;;;49.30;18.55;;;9.20;99.90;;;;;;5072139;28;20253;-75
2024/02/02 12:51:48;;;;;;;32.78;19.30;;;9.30;99.90;;;;;;5082815;28;20203;-77
2024/02/02 12:54:17;;;;;;;29.25;16.73;;;9.30;99.90;;;;;;5073963;28;20215;-76
2024/02/02 12:56:44;;;;;;;28.58;17.25;;;9.30;99.90;;;;;;5080788;28;20559;-76